sensor_id;sensor_type;location;lat;lon;timestamp;P1;P2;P0
73517;PMS5003;61766;60.318;25.044;2024-01-11T00:00:22;0;0;
73517;PMS5003;61766;60.318;25.044;2024-01-11T00:02:47;0;0;
73517;PMS5003;61766;60.318;25.044;2024-01-11T00:05:12;0;0;
73517;PMS5003;61766;60.318;25.044;2024-01-11T00:07:37;0;0;
73517;PMS5003;61766;60.318;25.044;2024-01-11T00:10:02;0;0;
73517;PMS5003;61766;60.318;25.044;2024-01-11T00:12:27;0;0;
73517;PMS5003;61766;60.318;25.044;2024-01-11T00:14:52;0;0;
73517;PMS5003;61766;60.318;25.044;2024-01-11T00:17:18;0;0;
73517;PMS5003;61766;60.318;25.044;2024-01-11T00:19:43;0;0;
73517;PMS5003;61766;60.318;25.044;2024-01-11T00:22:08;0;0;
73517;PMS5003;61766;60.318;25.044;2024-01-11T00:24:33;0;0;
73517;PMS5003;61766;60.318;25.044;2024-01-11T00:26:58;0;0;
73517;PMS5003;61766;60.318;25.044;2024-01-11T00:29:23;0;0;
73517;PMS5003;61766;60.318;25.044;2024-01-11T00:31:49;0;0;
73517;PMS5003;61766;60.318;25.044;2024-01-11T00:34:14;0;0;
73517;PMS5003;61766;60.318;25.044;2024-01-11T00:36:39;0;0;
73517;PMS5003;61766;60.318;25.044;2024-01-11T00:39:04;0;0;
73517;PMS5003;61766;60.318;25.044;2024-01-11T00:41:29;0;0;
73517;PMS5003;61766;60.318;25.044;2024-01-11T00:43:54;0;0;
73517;PMS5003;61766;60.318;25.044;2024-01-11T00:46:19;0;0;
73517;PMS5003;61766;60.318;25.044;2024-01-11T00:48:45;0;0;
73517;PMS5003;61766;60.318;25.044;2024-01-11T00:51:10;0;0;
73517;PMS5003;61766;60.318;25.044;2024-01-11T00:53:35;0;0;
73517;PMS5003;61766;60.318;25.044;2024-01-11T00:56:00;0;0;
73517;PMS5003;61766;60.318;25.044;2024-01-11T00:58:25;0;0;
73517;PMS5003;61766;60.318;25.044;2024-01-11T01:00:50;0;0;
73517;PMS5003;61766;60.318;25.044;2024-01-11T01:03:15;0;0;
73517;PMS5003;61766;60.318;25.044;2024-01-11T01:05:41;0;0;
73517;PMS5003;61766;60.318;25.044;2024-01-11T01:08:06;0;0;
73517;PMS5003;61766;60.318;25.044;2024-01-11T01:10:31;0;0;
73517;PMS5003;61766;60.318;25.044;2024-01-11T01:12:56;0;0;
73517;PMS5003;61766;60.318;25.044;2024-01-11T01:15:21;0;0;
73517;PMS5003;61766;60.318;25.044;2024-01-11T01:17:46;0;0;
73517;PMS5003;61766;60.318;25.044;2024-01-11T01:20:12;0;0;
73517;PMS5003;61766;60.318;25.044;2024-01-11T01:22:37;0;0;
73517;PMS5003;61766;60.318;25.044;2024-01-11T01:25:02;0;0;
73517;PMS5003;61766;60.318;25.044;2024-01-11T01:27:27;0;0;
73517;PMS5003;61766;60.318;25.044;2024-01-11T01:29:52;0;0;
73517;PMS5003;61766;60.318;25.044;2024-01-11T01:32:17;0;0;
73517;PMS5003;61766;60.318;25.044;2024-01-11T01:34:42;0;0;
73517;PMS5003;61766;60.318;25.044;2024-01-11T01:37:08;0;0;
73517;PMS5003;61766;60.318;25.044;2024-01-11T01:39:33;0;0;
73517;PMS5003;61766;60.318;25.044;2024-01-11T01:41:58;0;0;
73517;PMS5003;61766;60.318;25.044;2024-01-11T01:44:23;0;0;
73517;PMS5003;61766;60.318;25.044;2024-01-11T01:46:48;0;0;
73517;PMS5003;61766;60.318;25.044;2024-01-11T01:49:13;0;0;
73517;PMS5003;61766;60.318;25.044;2024-01-11T01:51:38;0;0;
73517;PMS5003;61766;60.318;25.044;2024-01-11T01:54:04;0;0;
73517;PMS5003;61766;60.318;25.044;2024-01-11T01:56:29;0;0;
73517;PMS5003;61766;60.318;25.044;2024-01-11T01:58:54;0;0;
73517;PMS5003;61766;60.318;25.044;2024-01-11T02:01:19;0;0;
73517;PMS5003;61766;60.318;25.044;2024-01-11T02:03:44;0;0;
73517;PMS5003;61766;60.318;25.044;2024-01-11T02:06:09;0;0;
73517;PMS5003;61766;60.318;25.044;2024-01-11T02:08:35;0;0;
73517;PMS5003;61766;60.318;25.044;2024-01-11T02:11:00;0;0;
73517;PMS5003;61766;60.318;25.044;2024-01-11T02:13:25;0;0;
73517;PMS5003;61766;60.318;25.044;2024-01-11T02:15:50;0;0;
73517;PMS5003;61766;60.318;25.044;2024-01-11T02:18:15;0;0;
73517;PMS5003;61766;60.318;25.044;2024-01-11T02:20:40;0;0;
73517;PMS5003;61766;60.318;25.044;2024-01-11T02:23:06;0;0;
73517;PMS5003;61766;60.318;25.044;2024-01-11T02:25:31;0;0;
73517;PMS5003;61766;60.318;25.044;2024-01-11T02:27:56;0;0;
73517;PMS5003;61766;60.318;25.044;2024-01-11T02:30:21;0;0;
73517;PMS5003;61766;60.318;25.044;2024-01-11T02:32:47;0;0;
73517;PMS5003;61766;60.318;25.044;2024-01-11T02:35:11;0;0;
73517;PMS5003;61766;60.318;25.044;2024-01-11T02:37:36;0;0;
73517;PMS5003;61766;60.318;25.044;2024-01-11T02:40:02;0;0;
73517;PMS5003;61766;60.318;25.044;2024-01-11T02:42:27;0;0;
73517;PMS5003;61766;60.318;25.044;2024-01-11T02:44:52;0;0;
73517;PMS5003;61766;60.318;25.044;2024-01-11T02:47:17;0;0;
73517;PMS5003;61766;60.318;25.044;2024-01-11T02:49:42;0;0;
73517;PMS5003;61766;60.318;25.044;2024-01-11T02:52:07;0;0;
73517;PMS5003;61766;60.318;25.044;2024-01-11T02:54:33;0;0;
73517;PMS5003;61766;60.318;25.044;2024-01-11T02:56:58;0;0;
73517;PMS5003;61766;60.318;25.044;2024-01-11T02:59:23;0;0;
73517;PMS5003;61766;60.318;25.044;2024-01-11T03:01:48;0;0;
73517;PMS5003;61766;60.318;25.044;2024-01-11T03:04:13;0;0;
73517;PMS5003;61766;60.318;25.044;2024-01-11T03:06:38;0;0;
73517;PMS5003;61766;60.318;25.044;2024-01-11T03:09:04;0;0;
73517;PMS5003;61766;60.318;25.044;2024-01-11T03:11:29;0;0;
73517;PMS5003;61766;60.318;25.044;2024-01-11T03:13:54;0;0;
73517;PMS5003;61766;60.318;25.044;2024-01-11T03:16:19;0;0;
73517;PMS5003;61766;60.318;25.044;2024-01-11T03:18:44;0;0;
73517;PMS5003;61766;60.318;25.044;2024-01-11T03:21:09;0;0;
73517;PMS5003;61766;60.318;25.044;2024-01-11T03:23:35;0;0;
73517;PMS5003;61766;60.318;25.044;2024-01-11T03:26:00;0;0;
73517;PMS5003;61766;60.318;25.044;2024-01-11T03:28:25;0;0;
73517;PMS5003;61766;60.318;25.044;2024-01-11T03:30:50;0;0;
73517;PMS5003;61766;60.318;25.044;2024-01-11T03:33:15;0;0;
73517;PMS5003;61766;60.318;25.044;2024-01-11T03:35:40;0;0;
73517;PMS5003;61766;60.318;25.044;2024-01-11T03:38:06;0;0;
73517;PMS5003;61766;60.318;25.044;2024-01-11T03:40:31;0;0;
73517;PMS5003;61766;60.318;25.044;2024-01-11T03:42:56;0;0;
73517;PMS5003;61766;60.318;25.044;2024-01-11T03:45:21;0;0;
73517;PMS5003;61766;60.318;25.044;2024-01-11T03:47:46;0;0;
73517;PMS5003;61766;60.318;25.044;2024-01-11T03:50:11;0;0;
73517;PMS5003;61766;60.318;25.044;2024-01-11T03:52:37;0;0;
73517;PMS5003;61766;60.318;25.044;2024-01-11T03:55:02;0;0;
73517;PMS5003;61766;60.318;25.044;2024-01-11T03:57:27;0;0;
73517;PMS5003;61766;60.318;25.044;2024-01-11T03:59:52;0;0;
73517;PMS5003;61766;60.318;25.044;2024-01-11T04:02:17;0;0;
73517;PMS5003;61766;60.318;25.044;2024-01-11T04:04:42;0;0;
73517;PMS5003;61766;60.318;25.044;2024-01-11T04:07:08;0;0;
73517;PMS5003;61766;60.318;25.044;2024-01-11T04:09:33;0;0;
73517;PMS5003;61766;60.318;25.044;2024-01-11T04:11:58;0;0;
73517;PMS5003;61766;60.318;25.044;2024-01-11T04:14:23;0;0;
73517;PMS5003;61766;60.318;25.044;2024-01-11T04:16:48;0;0;
73517;PMS5003;61766;60.318;25.044;2024-01-11T04:19:14;0;0;
73517;PMS5003;61766;60.318;25.044;2024-01-11T04:21:39;0;0;
73517;PMS5003;61766;60.318;25.044;2024-01-11T04:24:04;0;0;
73517;PMS5003;61766;60.318;25.044;2024-01-11T04:26:29;0;0;
73517;PMS5003;61766;60.318;25.044;2024-01-11T04:28:54;0;0;
73517;PMS5003;61766;60.318;25.044;2024-01-11T04:31:19;0;0;
73517;PMS5003;61766;60.318;25.044;2024-01-11T04:33:45;0;0;
73517;PMS5003;61766;60.318;25.044;2024-01-11T04:36:10;0;0;
73517;PMS5003;61766;60.318;25.044;2024-01-11T04:38:35;0;0;
73517;PMS5003;61766;60.318;25.044;2024-01-11T04:41:00;0;0;
73517;PMS5003;61766;60.318;25.044;2024-01-11T04:43:25;0;0;
73517;PMS5003;61766;60.318;25.044;2024-01-11T04:45:51;0;0;
73517;PMS5003;61766;60.318;25.044;2024-01-11T04:48:16;0;0;
73517;PMS5003;61766;60.318;25.044;2024-01-11T04:50:41;0;0;
73517;PMS5003;61766;60.318;25.044;2024-01-11T04:53:06;0;0;
73517;PMS5003;61766;60.318;25.044;2024-01-11T04:55:31;0;0;
73517;PMS5003;61766;60.318;25.044;2024-01-11T04:57:57;0;0;
73517;PMS5003;61766;60.318;25.044;2024-01-11T05:00:22;0;0;
73517;PMS5003;61766;60.318;25.044;2024-01-11T05:02:47;0;0;
73517;PMS5003;61766;60.318;25.044;2024-01-11T05:05:12;0;0;
73517;PMS5003;61766;60.318;25.044;2024-01-11T05:07:37;0;0;
73517;PMS5003;61766;60.318;25.044;2024-01-11T05:10:03;0;0;
73517;PMS5003;61766;60.318;25.044;2024-01-11T05:12:28;0;0;
73517;PMS5003;61766;60.318;25.044;2024-01-11T05:14:53;0;0;
73517;PMS5003;61766;60.318;25.044;2024-01-11T05:17:18;0;0;
73517;PMS5003;61766;60.318;25.044;2024-01-11T05:19:43;0;0;
73517;PMS5003;61766;60.318;25.044;2024-01-11T05:22:09;0;0;
73517;PMS5003;61766;60.318;25.044;2024-01-11T05:24:34;0;0;
73517;PMS5003;61766;60.318;25.044;2024-01-11T05:26:59;0;0;
73517;PMS5003;61766;60.318;25.044;2024-01-11T05:29:24;0;0;
73517;PMS5003;61766;60.318;25.044;2024-01-11T05:31:49;0;0;
73517;PMS5003;61766;60.318;25.044;2024-01-11T05:34:15;0;0;
73517;PMS5003;61766;60.318;25.044;2024-01-11T05:36:40;0;0;
73517;PMS5003;61766;60.318;25.044;2024-01-11T05:39:05;0;0;
73517;PMS5003;61766;60.318;25.044;2024-01-11T05:41:30;0;0;
73517;PMS5003;61766;60.318;25.044;2024-01-11T05:43:55;0;0;
73517;PMS5003;61766;60.318;25.044;2024-01-11T05:46:21;0;0;
73517;PMS5003;61766;60.318;25.044;2024-01-11T05:48:46;0;0;
73517;PMS5003;61766;60.318;25.044;2024-01-11T05:51:11;0;0;
73517;PMS5003;61766;60.318;25.044;2024-01-11T05:53:36;0;0;
73517;PMS5003;61766;60.318;25.044;2024-01-11T05:56:07;0;0;
73517;PMS5003;61766;60.318;25.044;2024-01-11T05:58:27;0;0;
73517;PMS5003;61766;60.318;25.044;2024-01-11T06:00:52;0;0;
73517;PMS5003;61766;60.318;25.044;2024-01-11T06:03:18;0;0;
73517;PMS5003;61766;60.318;25.044;2024-01-11T06:05:42;0;0;
73517;PMS5003;61766;60.318;25.044;2024-01-11T06:08:08;0;0;
73517;PMS5003;61766;60.318;25.044;2024-01-11T06:10:33;0;0;
73517;PMS5003;61766;60.318;25.044;2024-01-11T06:12:58;0;0;
73517;PMS5003;61766;60.318;25.044;2024-01-11T06:15:23;0;0;
73517;PMS5003;61766;60.318;25.044;2024-01-11T06:17:49;0;0;
73517;PMS5003;61766;60.318;25.044;2024-01-11T06:20:14;0;0;
73517;PMS5003;61766;60.318;25.044;2024-01-11T06:22:39;0;0;
73517;PMS5003;61766;60.318;25.044;2024-01-11T06:25:05;0;0;
73517;PMS5003;61766;60.318;25.044;2024-01-11T06:27:30;0;0;
73517;PMS5003;61766;60.318;25.044;2024-01-11T06:29:55;0;0;
73517;PMS5003;61766;60.318;25.044;2024-01-11T06:32:20;0;0;
73517;PMS5003;61766;60.318;25.044;2024-01-11T06:34:45;0;0;
73517;PMS5003;61766;60.318;25.044;2024-01-11T06:37:10;1;0;
73517;PMS5003;61766;60.318;25.044;2024-01-11T06:39:36;0;0;
73517;PMS5003;61766;60.318;25.044;2024-01-11T06:42:01;0;0;
73517;PMS5003;61766;60.318;25.044;2024-01-11T06:44:26;0;0;
73517;PMS5003;61766;60.318;25.044;2024-01-11T06:46:52;0;0;
73517;PMS5003;61766;60.318;25.044;2024-01-11T06:49:17;0;0;
73517;PMS5003;61766;60.318;25.044;2024-01-11T06:51:42;0;0;
73517;PMS5003;61766;60.318;25.044;2024-01-11T06:54:07;0;0;
73517;PMS5003;61766;60.318;25.044;2024-01-11T06:56:33;0;0;
73517;PMS5003;61766;60.318;25.044;2024-01-11T06:58:58;0;0;
73517;PMS5003;61766;60.318;25.044;2024-01-11T07:01:23;0;0;
73517;PMS5003;61766;60.318;25.044;2024-01-11T07:03:49;0;0;
73517;PMS5003;61766;60.318;25.044;2024-01-11T07:06:14;0;0;
73517;PMS5003;61766;60.318;25.044;2024-01-11T07:08:40;0;0;
73517;PMS5003;61766;60.318;25.044;2024-01-11T07:11:05;0;0;
73517;PMS5003;61766;60.318;25.044;2024-01-11T07:13:30;0;0;
73517;PMS5003;61766;60.318;25.044;2024-01-11T07:15:55;1;1;
73517;PMS5003;61766;60.318;25.044;2024-01-11T07:18:21;1;1;
73517;PMS5003;61766;60.318;25.044;2024-01-11T07:20:46;0;0;
73517;PMS5003;61766;60.318;25.044;2024-01-11T07:23:11;0;0;
73517;PMS5003;61766;60.318;25.044;2024-01-11T07:25:36;0;0;
73517;PMS5003;61766;60.318;25.044;2024-01-11T07:28:02;1;1;
73517;PMS5003;61766;60.318;25.044;2024-01-11T07:30:27;5;3;
73517;PMS5003;61766;60.318;25.044;2024-01-11T07:32:52;0;0;
73517;PMS5003;61766;60.318;25.044;2024-01-11T07:35:18;0;0;
73517;PMS5003;61766;60.318;25.044;2024-01-11T07:37:43;0;0;
73517;PMS5003;61766;60.318;25.044;2024-01-11T07:40:09;0;0;
73517;PMS5003;61766;60.318;25.044;2024-01-11T07:42:34;1;1;
73517;PMS5003;61766;60.318;25.044;2024-01-11T07:44:59;0;0;
73517;PMS5003;61766;60.318;25.044;2024-01-11T07:47:24;1;1;
73517;PMS5003;61766;60.318;25.044;2024-01-11T07:49:49;1;1;
73517;PMS5003;61766;60.318;25.044;2024-01-11T07:52:15;1;0;
73517;PMS5003;61766;60.318;25.044;2024-01-11T07:54:40;2;2;
73517;PMS5003;61766;60.318;25.044;2024-01-11T07:57:05;1;0;
73517;PMS5003;61766;60.318;25.044;2024-01-11T07:59:32;1;1;
73517;PMS5003;61766;60.318;25.044;2024-01-11T08:01:56;0;0;
73517;PMS5003;61766;60.318;25.044;2024-01-11T08:04:21;0;0;
73517;PMS5003;61766;60.318;25.044;2024-01-11T08:06:47;0;0;
73517;PMS5003;61766;60.318;25.044;2024-01-11T08:09:12;1;1;
73517;PMS5003;61766;60.318;25.044;2024-01-11T08:11:37;3;3;
73517;PMS5003;61766;60.318;25.044;2024-01-11T08:14:03;2;1;
73517;PMS5003;61766;60.318;25.044;2024-01-11T08:16:28;1;0;
73517;PMS5003;61766;60.318;25.044;2024-01-11T08:18:53;1;1;
73517;PMS5003;61766;60.318;25.044;2024-01-11T08:21:19;3;2;
73517;PMS5003;61766;60.318;25.044;2024-01-11T08:23:44;6;5;
73517;PMS5003;61766;60.318;25.044;2024-01-11T08:26:10;1;1;
73517;PMS5003;61766;60.318;25.044;2024-01-11T08:28:34;18;18;
73517;PMS5003;61766;60.318;25.044;2024-01-11T08:31:00;3;3;
73517;PMS5003;61766;60.318;25.044;2024-01-11T08:33:25;3;3;
73517;PMS5003;61766;60.318;25.044;2024-01-11T08:35:51;10;9;
73517;PMS5003;61766;60.318;25.044;2024-01-11T08:38:16;5;5;
73517;PMS5003;61766;60.318;25.044;2024-01-11T08:40:41;8;6;
73517;PMS5003;61766;60.318;25.044;2024-01-11T08:43:07;4;4;
73517;PMS5003;61766;60.318;25.044;2024-01-11T08:45:32;10;10;
73517;PMS5003;61766;60.318;25.044;2024-01-11T08:47:57;6;6;
73517;PMS5003;61766;60.318;25.044;2024-01-11T08:50:23;2;2;
73517;PMS5003;61766;60.318;25.044;2024-01-11T08:52:48;5;4;
73517;PMS5003;61766;60.318;25.044;2024-01-11T08:55:13;5;4;
73517;PMS5003;61766;60.318;25.044;2024-01-11T08:57:39;0;0;
73517;PMS5003;61766;60.318;25.044;2024-01-11T09:00:05;2;2;
73517;PMS5003;61766;60.318;25.044;2024-01-11T09:02:29;4;4;
73517;PMS5003;61766;60.318;25.044;2024-01-11T09:04:55;2;2;
73517;PMS5003;61766;60.318;25.044;2024-01-11T09:07:20;1;1;
73517;PMS5003;61766;60.318;25.044;2024-01-11T09:09:45;1;1;
73517;PMS5003;61766;60.318;25.044;2024-01-11T09:12:12;0;0;
73517;PMS5003;61766;60.318;25.044;2024-01-11T09:14:37;1;0;
73517;PMS5003;61766;60.318;25.044;2024-01-11T09:17:02;1;1;
73517;PMS5003;61766;60.318;25.044;2024-01-11T09:19:27;2;2;
73517;PMS5003;61766;60.318;25.044;2024-01-11T09:21:53;0;0;
73517;PMS5003;61766;60.318;25.044;2024-01-11T09:24:18;1;1;
73517;PMS5003;61766;60.318;25.044;2024-01-11T09:26:43;2;2;
73517;PMS5003;61766;60.318;25.044;2024-01-11T09:29:09;2;1;
73517;PMS5003;61766;60.318;25.044;2024-01-11T09:31:34;0;0;
73517;PMS5003;61766;60.318;25.044;2024-01-11T09:33:59;6;5;
73517;PMS5003;61766;60.318;25.044;2024-01-11T09:36:25;1;1;
73517;PMS5003;61766;60.318;25.044;2024-01-11T09:38:50;0;0;
73517;PMS5003;61766;60.318;25.044;2024-01-11T09:41:15;0;0;
73517;PMS5003;61766;60.318;25.044;2024-01-11T09:43:41;0;0;
73517;PMS5003;61766;60.318;25.044;2024-01-11T09:46:06;0;0;
73517;PMS5003;61766;60.318;25.044;2024-01-11T09:48:32;1;1;
73517;PMS5003;61766;60.318;25.044;2024-01-11T09:50:57;3;3;
73517;PMS5003;61766;60.318;25.044;2024-01-11T09:53:22;5;4;
73517;PMS5003;61766;60.318;25.044;2024-01-11T09:55:48;0;0;
73517;PMS5003;61766;60.318;25.044;2024-01-11T09:58:13;1;1;
73517;PMS5003;61766;60.318;25.044;2024-01-11T10:00:38;1;1;
73517;PMS5003;61766;60.318;25.044;2024-01-11T10:03:04;3;3;
73517;PMS5003;61766;60.318;25.044;2024-01-11T10:05:29;0;0;
73517;PMS5003;61766;60.318;25.044;2024-01-11T10:07:54;0;0;
73517;PMS5003;61766;60.318;25.044;2024-01-11T10:10:20;0;0;
73517;PMS5003;61766;60.318;25.044;2024-01-11T10:12:46;0;0;
73517;PMS5003;61766;60.318;25.044;2024-01-11T10:15:11;0;0;
73517;PMS5003;61766;60.318;25.044;2024-01-11T10:17:36;0;0;
73517;PMS5003;61766;60.318;25.044;2024-01-11T10:20:01;1;1;
73517;PMS5003;61766;60.318;25.044;2024-01-11T10:22:26;0;0;
73517;PMS5003;61766;60.318;25.044;2024-01-11T10:24:55;1;1;
73517;PMS5003;61766;60.318;25.044;2024-01-11T10:27:18;1;1;
73517;PMS5003;61766;60.318;25.044;2024-01-11T10:29:42;0;0;
73517;PMS5003;61766;60.318;25.044;2024-01-11T10:32:08;2;2;
73517;PMS5003;61766;60.318;25.044;2024-01-11T10:34:33;1;1;
73517;PMS5003;61766;60.318;25.044;2024-01-11T10:36:59;2;2;
73517;PMS5003;61766;60.318;25.044;2024-01-11T10:39:25;4;3;
73517;PMS5003;61766;60.318;25.044;2024-01-11T10:41:51;1;1;
73517;PMS5003;61766;60.318;25.044;2024-01-11T10:44:16;1;1;
73517;PMS5003;61766;60.318;25.044;2024-01-11T10:46:40;0;0;
73517;PMS5003;61766;60.318;25.044;2024-01-11T10:49:05;0;0;
73517;PMS5003;61766;60.318;25.044;2024-01-11T10:51:30;0;0;
73517;PMS5003;61766;60.318;25.044;2024-01-11T10:53:56;1;1;
73517;PMS5003;61766;60.318;25.044;2024-01-11T10:56:21;1;1;
73517;PMS5003;61766;60.318;25.044;2024-01-11T10:58:46;1;1;
73517;PMS5003;61766;60.318;25.044;2024-01-11T11:01:12;2;2;
73517;PMS5003;61766;60.318;25.044;2024-01-11T11:03:37;1;1;
73517;PMS5003;61766;60.318;25.044;2024-01-11T11:06:03;2;2;
73517;PMS5003;61766;60.318;25.044;2024-01-11T11:08:28;3;1;
73517;PMS5003;61766;60.318;25.044;2024-01-11T11:10:55;5;3;
73517;PMS5003;61766;60.318;25.044;2024-01-11T11:13:18;1;1;
73517;PMS5003;61766;60.318;25.044;2024-01-11T11:15:45;1;0;
73517;PMS5003;61766;60.318;25.044;2024-01-11T11:18:09;3;3;
73517;PMS5003;61766;60.318;25.044;2024-01-11T11:20:34;3;3;
73517;PMS5003;61766;60.318;25.044;2024-01-11T11:23:03;6;5;
73517;PMS5003;61766;60.318;25.044;2024-01-11T11:25:25;3;2;
73517;PMS5003;61766;60.318;25.044;2024-01-11T11:27:50;2;2;
73517;PMS5003;61766;60.318;25.044;2024-01-11T11:30:18;5;5;
73517;PMS5003;61766;60.318;25.044;2024-01-11T11:32:42;6;4;
73517;PMS5003;61766;60.318;25.044;2024-01-11T11:35:06;2;1;
73517;PMS5003;61766;60.318;25.044;2024-01-11T11:37:32;0;0;
73517;PMS5003;61766;60.318;25.044;2024-01-11T11:39:57;2;2;
73517;PMS5003;61766;60.318;25.044;2024-01-11T11:42:22;2;2;
73517;PMS5003;61766;60.318;25.044;2024-01-11T11:44:49;2;2;
73517;PMS5003;61766;60.318;25.044;2024-01-11T11:47:18;0;0;
73517;PMS5003;61766;60.318;25.044;2024-01-11T11:52:04;2;1;
73517;PMS5003;61766;60.318;25.044;2024-01-11T11:54:29;2;1;
73517;PMS5003;61766;60.318;25.044;2024-01-11T11:56:54;0;0;
73517;PMS5003;61766;60.318;25.044;2024-01-11T11:59:20;0;0;
73517;PMS5003;61766;60.318;25.044;2024-01-11T12:01:45;1;1;
73517;PMS5003;61766;60.318;25.044;2024-01-11T12:04:10;1;1;
73517;PMS5003;61766;60.318;25.044;2024-01-11T12:06:36;2;2;
73517;PMS5003;61766;60.318;25.044;2024-01-11T12:09:01;2;1;
73517;PMS5003;61766;60.318;25.044;2024-01-11T12:11:26;1;1;
73517;PMS5003;61766;60.318;25.044;2024-01-11T12:13:52;2;2;
73517;PMS5003;61766;60.318;25.044;2024-01-11T12:16:17;1;1;
73517;PMS5003;61766;60.318;25.044;2024-01-11T12:18:42;1;1;
73517;PMS5003;61766;60.318;25.044;2024-01-11T12:21:08;2;1;
73517;PMS5003;61766;60.318;25.044;2024-01-11T12:23:33;2;1;
73517;PMS5003;61766;60.318;25.044;2024-01-11T12:25:58;2;1;
73517;PMS5003;61766;60.318;25.044;2024-01-11T12:28:24;1;1;
73517;PMS5003;61766;60.318;25.044;2024-01-11T12:30:49;1;1;
73517;PMS5003;61766;60.318;25.044;2024-01-11T12:33:15;2;2;
73517;PMS5003;61766;60.318;25.044;2024-01-11T12:35:40;0;0;
73517;PMS5003;61766;60.318;25.044;2024-01-11T12:38:05;1;1;
73517;PMS5003;61766;60.318;25.044;2024-01-11T12:40:31;1;1;
73517;PMS5003;61766;60.318;25.044;2024-01-11T12:42:56;1;1;
73517;PMS5003;61766;60.318;25.044;2024-01-11T12:45:21;1;1;
73517;PMS5003;61766;60.318;25.044;2024-01-11T12:47:47;2;1;
73517;PMS5003;61766;60.318;25.044;2024-01-11T12:50:12;3;3;
73517;PMS5003;61766;60.318;25.044;2024-01-11T12:52:37;3;2;
73517;PMS5003;61766;60.318;25.044;2024-01-11T12:55:03;2;1;
73517;PMS5003;61766;60.318;25.044;2024-01-11T12:57:28;1;1;
73517;PMS5003;61766;60.318;25.044;2024-01-11T12:59:54;3;2;
73517;PMS5003;61766;60.318;25.044;2024-01-11T13:02:19;2;2;
73517;PMS5003;61766;60.318;25.044;2024-01-11T13:04:44;3;3;
73517;PMS5003;61766;60.318;25.044;2024-01-11T13:07:10;2;2;
73517;PMS5003;61766;60.318;25.044;2024-01-11T13:09:35;4;4;
73517;PMS5003;61766;60.318;25.044;2024-01-11T13:12:00;2;2;
73517;PMS5003;61766;60.318;25.044;2024-01-11T13:14:26;4;4;
73517;PMS5003;61766;60.318;25.044;2024-01-11T13:16:51;5;5;
73517;PMS5003;61766;60.318;25.044;2024-01-11T13:19:16;4;4;
73517;PMS5003;61766;60.318;25.044;2024-01-11T13:21:43;4;4;
73517;PMS5003;61766;60.318;25.044;2024-01-11T13:24:07;4;3;
73517;PMS5003;61766;60.318;25.044;2024-01-11T13:26:33;7;7;
73517;PMS5003;61766;60.318;25.044;2024-01-11T13:28:58;5;5;
73517;PMS5003;61766;60.318;25.044;2024-01-11T13:31:23;7;7;
73517;PMS5003;61766;60.318;25.044;2024-01-11T13:33:49;2;2;
73517;PMS5003;61766;60.318;25.044;2024-01-11T13:36:14;3;3;
73517;PMS5003;61766;60.318;25.044;2024-01-11T13:38:39;2;2;
73517;PMS5003;61766;60.318;25.044;2024-01-11T13:41:05;1;1;
73517;PMS5003;61766;60.318;25.044;2024-01-11T13:43:30;2;2;
73517;PMS5003;61766;60.318;25.044;2024-01-11T13:45:56;2;2;
73517;PMS5003;61766;60.318;25.044;2024-01-11T13:48:21;1;1;
73517;PMS5003;61766;60.318;25.044;2024-01-11T13:50:46;1;1;
73517;PMS5003;61766;60.318;25.044;2024-01-11T13:53:12;1;1;
73517;PMS5003;61766;60.318;25.044;2024-01-11T13:55:37;2;1;
73517;PMS5003;61766;60.318;25.044;2024-01-11T13:58:03;1;1;
73517;PMS5003;61766;60.318;25.044;2024-01-11T14:00:28;0;0;
73517;PMS5003;61766;60.318;25.044;2024-01-11T14:02:53;2;2;
73517;PMS5003;61766;60.318;25.044;2024-01-11T14:05:19;1;1;
73517;PMS5003;61766;60.318;25.044;2024-01-11T14:07:44;2;2;
73517;PMS5003;61766;60.318;25.044;2024-01-11T14:10:10;3;3;
73517;PMS5003;61766;60.318;25.044;2024-01-11T14:12:35;2;2;
73517;PMS5003;61766;60.318;25.044;2024-01-11T14:15:01;0;0;
73517;PMS5003;61766;60.318;25.044;2024-01-11T14:17:26;0;0;
73517;PMS5003;61766;60.318;25.044;2024-01-11T14:19:51;0;0;
73517;PMS5003;61766;60.318;25.044;2024-01-11T14:22:17;0;0;
73517;PMS5003;61766;60.318;25.044;2024-01-11T14:24:43;2;2;
73517;PMS5003;61766;60.318;25.044;2024-01-11T14:27:07;1;1;
73517;PMS5003;61766;60.318;25.044;2024-01-11T14:29:33;1;1;
73517;PMS5003;61766;60.318;25.044;2024-01-11T14:31:58;1;1;
73517;PMS5003;61766;60.318;25.044;2024-01-11T14:34:24;3;3;
73517;PMS5003;61766;60.318;25.044;2024-01-11T14:36:49;1;1;
73517;PMS5003;61766;60.318;25.044;2024-01-11T14:39:15;1;1;
73517;PMS5003;61766;60.318;25.044;2024-01-11T14:41:40;1;1;
73517;PMS5003;61766;60.318;25.044;2024-01-11T14:44:05;4;3;
73517;PMS5003;61766;60.318;25.044;2024-01-11T14:46:31;1;1;
73517;PMS5003;61766;60.318;25.044;2024-01-11T14:48:56;2;2;
73517;PMS5003;61766;60.318;25.044;2024-01-11T14:51:22;3;3;
73517;PMS5003;61766;60.318;25.044;2024-01-11T14:53:47;1;1;
73517;PMS5003;61766;60.318;25.044;2024-01-11T14:56:12;4;2;
73517;PMS5003;61766;60.318;25.044;2024-01-11T14:58:38;2;2;
73517;PMS5003;61766;60.318;25.044;2024-01-11T15:01:03;2;2;
73517;PMS5003;61766;60.318;25.044;2024-01-11T15:03:29;2;2;
73517;PMS5003;61766;60.318;25.044;2024-01-11T15:05:54;2;2;
73517;PMS5003;61766;60.318;25.044;2024-01-11T15:08:19;9;7;
73517;PMS5003;61766;60.318;25.044;2024-01-11T15:10:45;3;2;
73517;PMS5003;61766;60.318;25.044;2024-01-11T15:13:10;2;2;
73517;PMS5003;61766;60.318;25.044;2024-01-11T15:15:36;2;2;
73517;PMS5003;61766;60.318;25.044;2024-01-11T15:18:01;2;2;
73517;PMS5003;61766;60.318;25.044;2024-01-11T15:20:26;1;1;
73517;PMS5003;61766;60.318;25.044;2024-01-11T15:22:52;3;3;
73517;PMS5003;61766;60.318;25.044;2024-01-11T15:25:17;9;8;
73517;PMS5003;61766;60.318;25.044;2024-01-11T15:27:42;6;4;
73517;PMS5003;61766;60.318;25.044;2024-01-11T15:30:08;9;8;
73517;PMS5003;61766;60.318;25.044;2024-01-11T15:32:33;7;6;
73517;PMS5003;61766;60.318;25.044;2024-01-11T15:34:58;4;3;
73517;PMS5003;61766;60.318;25.044;2024-01-11T15:37:23;7;7;
73517;PMS5003;61766;60.318;25.044;2024-01-11T15:39:49;3;3;
73517;PMS5003;61766;60.318;25.044;2024-01-11T15:42:14;6;6;
73517;PMS5003;61766;60.318;25.044;2024-01-11T15:44:40;2;1;
73517;PMS5003;61766;60.318;25.044;2024-01-11T15:47:05;2;2;
73517;PMS5003;61766;60.318;25.044;2024-01-11T15:49:30;3;3;
73517;PMS5003;61766;60.318;25.044;2024-01-11T15:51:56;8;7;
73517;PMS5003;61766;60.318;25.044;2024-01-11T15:54:21;6;6;
73517;PMS5003;61766;60.318;25.044;2024-01-11T15:56:47;6;6;
73517;PMS5003;61766;60.318;25.044;2024-01-11T15:59:12;3;3;
73517;PMS5003;61766;60.318;25.044;2024-01-11T16:01:38;6;6;
73517;PMS5003;61766;60.318;25.044;2024-01-11T16:04:03;9;8;
73517;PMS5003;61766;60.318;25.044;2024-01-11T16:06:28;7;7;
73517;PMS5003;61766;60.318;25.044;2024-01-11T16:08:54;19;18;
73517;PMS5003;61766;60.318;25.044;2024-01-11T16:11:19;27;25;
73517;PMS5003;61766;60.318;25.044;2024-01-11T16:13:45;35;30;
73517;PMS5003;61766;60.318;25.044;2024-01-11T16:16:10;20;20;
73517;PMS5003;61766;60.318;25.044;2024-01-11T16:18:36;11;9;
73517;PMS5003;61766;60.318;25.044;2024-01-11T16:21:01;4;4;